sensor_id;sensor_type;location;lat;lon;timestamp;pressure;altitude;pressure_sealevel;temperature;humidity
58975;BME280;44751;52.236;5.178;2022-09-13T00:01:08;100898.75;;;19.06;100.00
58975;BME280;44751;52.236;5.178;2022-09-13T00:03:34;100895.28;;;19.10;100.00
58975;BME280;44751;52.236;5.178;2022-09-13T00:06:14;100896.22;;;19.04;100.00
58975;BME280;44751;52.236;5.178;2022-09-13T00:08:58;100879.91;;;18.97;100.00
58975;BME280;44751;52.236;5.178;2022-09-13T00:11:27;100880.66;;;19.05;100.00
58975;BME280;44751;52.236;5.178;2022-09-13T00:13:55;100871.50;;;18.99;100.00
58975;BME280;44751;52.236;5.178;2022-09-13T00:16:24;100877.28;;;18.91;100.00
58975;BME280;44751;52.236;5.178;2022-09-13T00:18:52;100880.84;;;18.91;100.00
58975;BME280;44751;52.236;5.178;2022-09-13T00:21:20;100897.22;;;18.79;100.00
58975;BME280;44751;52.236;5.178;2022-09-13T00:23:56;100898.06;;;18.80;100.00
58975;BME280;44751;52.236;5.178;2022-09-13T00:26:26;100883.56;;;18.79;100.00
58975;BME280;44751;52.236;5.178;2022-09-13T00:28:57;100890.06;;;18.78;100.00
58975;BME280;44751;52.236;5.178;2022-09-13T00:31:26;100891.13;;;18.65;100.00
58975;BME280;44751;52.236;5.178;2022-09-13T00:33:57;100886.41;;;18.73;100.00
58975;BME280;44751;52.236;5.178;2022-09-13T00:36:39;100871.03;;;18.60;100.00
58975;BME280;44751;52.236;5.178;2022-09-13T00:39:16;100869.28;;;18.65;100.00
58975;BME280;44751;52.236;5.178;2022-09-13T00:41:42;100872.69;;;18.61;100.00
58975;BME280;44751;52.236;5.178;2022-09-13T00:47:14;100878.44;;;18.71;100.00
58975;BME280;44751;52.236;5.178;2022-09-13T00:50:42;100880.03;;;18.60;100.00
58975;BME280;44751;52.236;5.178;2022-09-13T00:53:13;100889.47;;;18.64;100.00
58975;BME280;44751;52.236;5.178;2022-09-13T00:55:57;100870.66;;;18.56;100.00
58975;BME280;44751;52.236;5.178;2022-09-13T00:58:49;100877.19;;;18.55;100.00
58975;BME280;44751;52.236;5.178;2022-09-13T01:01:20;100869.94;;;18.49;100.00
58975;BME280;44751;52.236;5.178;2022-09-13T01:03:51;100866.25;;;18.55;100.00
58975;BME280;44751;52.236;5.178;2022-09-13T01:06:22;100873.38;;;18.56;100.00
58975;BME280;44751;52.236;5.178;2022-09-13T01:09:03;100868.25;;;18.48;100.00
58975;BME280;44751;52.236;5.178;2022-09-13T01:11:52;100871.59;;;18.50;100.00
58975;BME280;44751;52.236;5.178;2022-09-13T01:14:30;100882.13;;;18.46;100.00
58975;BME280;44751;52.236;5.178;2022-09-13T01:16:57;100881.50;;;18.32;100.00
58975;BME280;44751;52.236;5.178;2022-09-13T01:19:24;100875.97;;;18.39;100.00
58975;BME280;44751;52.236;5.178;2022-09-13T01:22:02;100877.97;;;18.43;100.00
58975;BME280;44751;52.236;5.178;2022-09-13T01:24:58;100871.84;;;18.29;100.00
58975;BME280;44751;52.236;5.178;2022-09-13T01:27:49;100867.84;;;18.32;100.00
58975;BME280;44751;52.236;5.178;2022-09-13T01:30:23;100869.59;;;18.26;100.00
58975;BME280;44751;52.236;5.178;2022-09-13T01:33:11;100875.22;;;18.31;100.00
58975;BME280;44751;52.236;5.178;2022-09-13T01:44:21;100859.25;;;18.47;100.00
58975;BME280;44751;52.236;5.178;2022-09-13T01:52:29;100865.72;;;18.34;100.00
58975;BME280;44751;52.236;5.178;2022-09-13T02:00:39;100860.88;;;18.36;100.00
58975;BME280;44751;52.236;5.178;2022-09-13T02:03:12;100860.94;;;18.29;100.00
58975;BME280;44751;52.236;5.178;2022-09-13T02:05:50;100853.72;;;18.35;100.00
58975;BME280;44751;52.236;5.178;2022-09-13T02:08:54;100858.59;;;18.33;100.00
58975;BME280;44751;52.236;5.178;2022-09-13T02:11:22;100853.13;;;18.33;100.00
58975;BME280;44751;52.236;5.178;2022-09-13T02:13:57;100847.50;;;18.28;100.00
58975;BME280;44751;52.236;5.178;2022-09-13T02:16:37;100837.44;;;18.28;100.00
58975;BME280;44751;52.236;5.178;2022-09-13T02:19:09;100847.16;;;18.24;100.00
58975;BME280;44751;52.236;5.178;2022-09-13T02:21:40;100856.19;;;18.25;100.00
58975;BME280;44751;52.236;5.178;2022-09-13T02:24:27;100853.69;;;18.23;100.00
58975;BME280;44751;52.236;5.178;2022-09-13T02:26:55;100851.19;;;18.22;100.00
58975;BME280;44751;52.236;5.178;2022-09-13T02:29:25;100853.16;;;18.14;100.00
58975;BME280;44751;52.236;5.178;2022-09-13T02:31:58;100857.72;;;18.21;100.00
58975;BME280;44751;52.236;5.178;2022-09-13T02:34:51;100846.91;;;18.26;100.00
58975;BME280;44751;52.236;5.178;2022-09-13T02:37:19;100855.94;;;18.07;100.00
58975;BME280;44751;52.236;5.178;2022-09-13T02:40:02;100853.84;;;18.10;100.00
58975;BME280;44751;52.236;5.178;2022-09-13T02:42:37;100849.84;;;18.12;100.00
58975;BME280;44751;52.236;5.178;2022-09-13T02:45:07;100849.97;;;18.17;100.00
58975;BME280;44751;52.236;5.178;2022-09-13T02:47:59;100848.44;;;18.22;100.00
58975;BME280;44751;52.236;5.178;2022-09-13T02:59:14;100839.91;;;18.18;100.00
58975;BME280;44751;52.236;5.178;2022-09-13T03:01:45;100839.28;;;18.16;100.00
58975;BME280;44751;52.236;5.178;2022-09-13T03:04:28;100842.38;;;18.19;100.00
58975;BME280;44751;52.236;5.178;2022-09-13T03:06:54;100851.50;;;18.13;100.00
58975;BME280;44751;52.236;5.178;2022-09-13T03:09:33;100846.91;;;18.07;100.00
58975;BME280;44751;52.236;5.178;2022-09-13T03:18:06;100841.63;;;17.93;100.00
58975;BME280;44751;52.236;5.178;2022-09-13T03:21:07;100846.56;;;17.85;100.00
58975;BME280;44751;52.236;5.178;2022-09-13T03:29:23;100853.91;;;18.03;100.00
58975;BME280;44751;52.236;5.178;2022-09-13T03:32:47;100853.59;;;18.11;100.00
58975;BME280;44751;52.236;5.178;2022-09-13T03:38:21;100859.06;;;18.11;100.00
58975;BME280;44751;52.236;5.178;2022-09-13T03:41:14;100850.19;;;18.16;100.00
58975;BME280;44751;52.236;5.178;2022-09-13T03:43:52;100840.94;;;18.17;100.00
58975;BME280;44751;52.236;5.178;2022-09-13T03:46:24;100842.91;;;18.10;100.00
58975;BME280;44751;52.236;5.178;2022-09-13T03:48:53;100845.19;;;18.13;100.00
58975;BME280;44751;52.236;5.178;2022-09-13T03:51:23;100840.81;;;18.12;100.00
58975;BME280;44751;52.236;5.178;2022-09-13T03:54:00;100833.47;;;18.12;100.00
58975;BME280;44751;52.236;5.178;2022-09-13T03:56:28;100832.75;;;17.98;100.00
58975;BME280;44751;52.236;5.178;2022-09-13T03:58:54;100831.16;;;17.90;100.00
58975;BME280;44751;52.236;5.178;2022-09-13T04:01:23;100839.75;;;17.94;100.00
58975;BME280;44751;52.236;5.178;2022-09-13T04:03:50;100838.44;;;17.97;100.00
58975;BME280;44751;52.236;5.178;2022-09-13T04:06:16;100835.88;;;17.83;100.00
58975;BME280;44751;52.236;5.178;2022-09-13T04:08:43;100834.97;;;17.89;100.00
58975;BME280;44751;52.236;5.178;2022-09-13T04:11:22;100842.94;;;17.91;100.00
58975;BME280;44751;52.236;5.178;2022-09-13T04:13:48;100834.13;;;17.89;100.00
58975;BME280;44751;52.236;5.178;2022-09-13T04:16:15;100834.66;;;17.79;100.00
58975;BME280;44751;52.236;5.178;2022-09-13T04:18:41;100851.56;;;17.69;100.00
58975;BME280;44751;52.236;5.178;2022-09-13T04:21:10;100852.41;;;17.70;100.00
58975;BME280;44751;52.236;5.178;2022-09-13T04:23:39;100850.56;;;17.63;100.00
58975;BME280;44751;52.236;5.178;2022-09-13T04:26:29;100853.69;;;17.67;100.00
58975;BME280;44751;52.236;5.178;2022-09-13T04:28:55;100855.66;;;17.60;100.00
58975;BME280;44751;52.236;5.178;2022-09-13T04:31:22;100862.28;;;17.45;100.00
58975;BME280;44751;52.236;5.178;2022-09-13T04:33:48;100865.44;;;17.49;100.00
58975;BME280;44751;52.236;5.178;2022-09-13T04:36:15;100862.91;;;17.47;100.00
58975;BME280;44751;52.236;5.178;2022-09-13T04:38:41;100863.81;;;17.41;100.00
58975;BME280;44751;52.236;5.178;2022-09-13T04:41:27;100868.50;;;17.34;100.00
58975;BME280;44751;52.236;5.178;2022-09-13T04:43:54;100867.53;;;17.28;100.00
58975;BME280;44751;52.236;5.178;2022-09-13T04:46:23;100865.44;;;17.23;100.00
58975;BME280;44751;52.236;5.178;2022-09-13T04:48:50;100864.66;;;17.16;100.00
58975;BME280;44751;52.236;5.178;2022-09-13T04:51:17;100868.03;;;17.18;100.00
58975;BME280;44751;52.236;5.178;2022-09-13T04:53:46;100864.28;;;17.12;100.00
58975;BME280;44751;52.236;5.178;2022-09-13T04:56:19;100873.28;;;17.13;100.00
58975;BME280;44751;52.236;5.178;2022-09-13T04:58:47;100865.59;;;17.03;100.00
58975;BME280;44751;52.236;5.178;2022-09-13T05:01:13;100864.72;;;17.09;100.00
58975;BME280;44751;52.236;5.178;2022-09-13T05:03:40;100873.53;;;17.04;100.00
58975;BME280;44751;52.236;5.178;2022-09-13T05:06:10;100868.34;;;17.03;100.00
58975;BME280;44751;52.236;5.178;2022-09-13T05:08:39;100872.06;;;17.09;100.00
58975;BME280;44751;52.236;5.178;2022-09-13T05:11:08;100876.13;;;17.25;100.00
58975;BME280;44751;52.236;5.178;2022-09-13T05:13:36;100879.25;;;17.28;100.00
58975;BME280;44751;52.236;5.178;2022-09-13T05:16:05;100880.88;;;17.36;100.00
58975;BME280;44751;52.236;5.178;2022-09-13T05:18:36;100882.84;;;17.48;100.00
58975;BME280;44751;52.236;5.178;2022-09-13T05:21:06;100887.69;;;17.46;100.00
58975;BME280;44751;52.236;5.178;2022-09-13T05:23:32;100889.75;;;17.50;100.00
58975;BME280;44751;52.236;5.178;2022-09-13T05:26:05;100891.75;;;17.62;100.00
58975;BME280;44751;52.236;5.178;2022-09-13T05:28:33;100881.66;;;17.62;100.00
58975;BME280;44751;52.236;5.178;2022-09-13T05:31:06;100882.75;;;17.80;100.00
58975;BME280;44751;52.236;5.178;2022-09-13T05:33:35;100896.38;;;17.80;100.00
58975;BME280;44751;52.236;5.178;2022-09-13T05:36:03;100891.72;;;17.80;100.00
58975;BME280;44751;52.236;5.178;2022-09-13T05:38:30;100899.84;;;17.87;100.00
58975;BME280;44751;52.236;5.178;2022-09-13T05:41:05;100899.53;;;17.96;100.00
58975;BME280;44751;52.236;5.178;2022-09-13T05:43:34;100894.69;;;17.98;100.00
58975;BME280;44751;52.236;5.178;2022-09-13T05:46:05;100900.47;;;18.08;100.00
58975;BME280;44751;52.236;5.178;2022-09-13T05:48:36;100898.59;;;18.09;100.00
58975;BME280;44751;52.236;5.178;2022-09-13T05:51:13;100897.59;;;18.22;100.00
58975;BME280;44751;52.236;5.178;2022-09-13T05:53:43;100905.44;;;18.18;100.00
58975;BME280;44751;52.236;5.178;2022-09-13T05:56:32;100906.00;;;18.20;100.00
58975;BME280;44751;52.236;5.178;2022-09-13T05:59:02;100899.09;;;18.36;100.00
58975;BME280;44751;52.236;5.178;2022-09-13T06:01:33;100911.69;;;18.37;100.00
58975;BME280;44751;52.236;5.178;2022-09-13T06:03:59;100914.56;;;18.42;100.00
58975;BME280;44751;52.236;5.178;2022-09-13T06:06:26;100918.25;;;18.48;100.00
58975;BME280;44751;52.236;5.178;2022-09-13T06:08:54;100918.78;;;18.57;100.00
58975;BME280;44751;52.236;5.178;2022-09-13T06:11:26;100911.88;;;18.54;100.00
58975;BME280;44751;52.236;5.178;2022-09-13T06:13:56;100911.72;;;18.49;100.00
58975;BME280;44751;52.236;5.178;2022-09-13T06:16:22;100907.94;;;18.50;100.00
58975;BME280;44751;52.236;5.178;2022-09-13T06:18:50;100915.56;;;18.60;100.00
58975;BME280;44751;52.236;5.178;2022-09-13T06:21:21;100911.69;;;18.68;100.00
58975;BME280;44751;52.236;5.178;2022-09-13T06:23:52;100920.13;;;18.66;100.00
58975;BME280;44751;52.236;5.178;2022-09-13T06:26:34;100921.63;;;18.50;100.00
58975;BME280;44751;52.236;5.178;2022-09-13T06:29:01;100927.78;;;18.57;100.00
58975;BME280;44751;52.236;5.178;2022-09-13T06:31:28;100923.59;;;18.43;100.00
58975;BME280;44751;52.236;5.178;2022-09-13T06:33:57;100934.34;;;18.56;100.00
58975;BME280;44751;52.236;5.178;2022-09-13T06:36:24;100933.75;;;18.54;100.00
58975;BME280;44751;52.236;5.178;2022-09-13T06:38:51;100935.66;;;18.66;100.00
58975;BME280;44751;52.236;5.178;2022-09-13T06:41:37;100942.44;;;18.63;100.00
58975;BME280;44751;52.236;5.178;2022-09-13T06:44:12;100938.41;;;18.66;100.00
58975;BME280;44751;52.236;5.178;2022-09-13T06:46:39;100930.94;;;18.73;100.00
58975;BME280;44751;52.236;5.178;2022-09-13T06:49:06;100933.91;;;18.71;100.00
58975;BME280;44751;52.236;5.178;2022-09-13T06:51:34;100929.81;;;18.81;100.00
58975;BME280;44751;52.236;5.178;2022-09-13T06:54:01;100930.19;;;18.96;100.00
58975;BME280;44751;52.236;5.178;2022-09-13T06:56:46;100923.50;;;18.92;100.00
58975;BME280;44751;52.236;5.178;2022-09-13T06:59:13;100931.97;;;18.91;100.00
58975;BME280;44751;52.236;5.178;2022-09-13T07:01:41;100937.47;;;19.03;100.00
58975;BME280;44751;52.236;5.178;2022-09-13T07:04:10;100939.75;;;19.06;100.00
58975;BME280;44751;52.236;5.178;2022-09-13T07:06:44;100923.84;;;19.15;100.00
58975;BME280;44751;52.236;5.178;2022-09-13T07:09:16;100930.75;;;19.17;100.00
58975;BME280;44751;52.236;5.178;2022-09-13T07:11:55;100931.09;;;19.21;100.00
58975;BME280;44751;52.236;5.178;2022-09-13T07:14:27;100920.88;;;19.28;100.00
58975;BME280;44751;52.236;5.178;2022-09-13T07:16:54;100926.59;;;19.27;100.00
58975;BME280;44751;52.236;5.178;2022-09-13T07:19:23;100922.94;;;19.33;100.00
58975;BME280;44751;52.236;5.178;2022-09-13T07:21:51;100923.16;;;19.31;100.00
58975;BME280;44751;52.236;5.178;2022-09-13T07:24:19;100925.31;;;19.41;100.00
58975;BME280;44751;52.236;5.178;2022-09-13T07:27:03;100930.53;;;19.43;100.00
58975;BME280;44751;52.236;5.178;2022-09-13T07:29:29;100926.13;;;19.30;100.00
58975;BME280;44751;52.236;5.178;2022-09-13T07:31:55;100910.19;;;19.27;100.00
58975;BME280;44751;52.236;5.178;2022-09-13T07:34:23;100920.66;;;19.54;100.00
58975;BME280;44751;52.236;5.178;2022-09-13T07:36:51;100923.50;;;19.47;100.00
58975;BME280;44751;52.236;5.178;2022-09-13T07:39:20;100940.88;;;19.53;100.00
58975;BME280;44751;52.236;5.178;2022-09-13T07:42:01;100939.59;;;19.55;100.00
58975;BME280;44751;52.236;5.178;2022-09-13T07:44:28;100935.75;;;19.44;100.00
58975;BME280;44751;52.236;5.178;2022-09-13T07:46:57;100948.38;;;19.57;100.00
58975;BME280;44751;52.236;5.178;2022-09-13T07:49:24;100942.56;;;19.66;100.00
58975;BME280;44751;52.236;5.178;2022-09-13T07:51:50;100951.00;;;19.76;100.00
58975;BME280;44751;52.236;5.178;2022-09-13T07:54:18;100945.28;;;19.78;100.00
58975;BME280;44751;52.236;5.178;2022-09-13T07:56:44;100952.78;;;19.70;100.00
58975;BME280;44751;52.236;5.178;2022-09-13T07:59:24;100950.88;;;19.71;100.00
58975;BME280;44751;52.236;5.178;2022-09-13T08:01:51;100958.97;;;19.78;100.00
58975;BME280;44751;52.236;5.178;2022-09-13T08:04:21;100958.03;;;19.60;100.00
58975;BME280;44751;52.236;5.178;2022-09-13T08:06:48;100960.28;;;19.75;100.00
58975;BME280;44751;52.236;5.178;2022-09-13T08:09:15;100953.34;;;19.96;100.00
58975;BME280;44751;52.236;5.178;2022-09-13T08:11:44;100955.53;;;20.06;100.00
58975;BME280;44751;52.236;5.178;2022-09-13T08:14:13;100955.75;;;20.17;100.00
58975;BME280;44751;52.236;5.178;2022-09-13T08:16:40;100952.03;;;20.23;100.00
58975;BME280;44751;52.236;5.178;2022-09-13T08:19:16;100945.19;;;20.79;100.00
58975;BME280;44751;52.236;5.178;2022-09-13T08:21:44;100948.19;;;20.94;100.00
58975;BME280;44751;52.236;5.178;2022-09-13T08:24:19;100955.38;;;20.66;100.00
58975;BME280;44751;52.236;5.178;2022-09-13T08:26:46;100953.38;;;21.08;100.00
58975;BME280;44751;52.236;5.178;2022-09-13T08:29:14;100966.50;;;20.76;100.00
58975;BME280;44751;52.236;5.178;2022-09-13T08:31:41;100961.22;;;20.87;100.00
58975;BME280;44751;52.236;5.178;2022-09-13T08:34:12;100961.13;;;21.28;100.00
58975;BME280;44751;52.236;5.178;2022-09-13T08:36:39;100955.03;;;21.95;100.00
58975;BME280;44751;52.236;5.178;2022-09-13T08:39:06;100967.34;;;21.58;100.00
58975;BME280;44751;52.236;5.178;2022-09-13T08:44:12;100970.66;;;21.94;100.00
58975;BME280;44751;52.236;5.178;2022-09-13T08:46:48;100970.09;;;21.58;100.00
58975;BME280;44751;52.236;5.178;2022-09-13T08:49:27;100968.06;;;21.31;100.00
58975;BME280;44751;52.236;5.178;2022-09-13T08:52:02;100963.13;;;21.15;100.00
58975;BME280;44751;52.236;5.178;2022-09-13T08:54:32;100972.22;;;20.75;100.00
58975;BME280;44751;52.236;5.178;2022-09-13T08:57:19;100979.59;;;20.57;100.00
58975;BME280;44751;52.236;5.178;2022-09-13T08:59:52;100977.38;;;20.42;100.00
58975;BME280;44751;52.236;5.178;2022-09-13T09:05:14;100976.63;;;20.88;100.00
58975;BME280;44751;52.236;5.178;2022-09-13T09:08:12;100969.69;;;21.14;100.00
58975;BME280;44751;52.236;5.178;2022-09-13T09:10:47;100979.53;;;21.27;100.00
58975;BME280;44751;52.236;5.178;2022-09-13T10:40:30;100958.94;;;22.43;100.00
58975;BME280;44751;52.236;5.178;2022-09-13T10:43:00;100969.41;;;22.24;100.00
58975;BME280;44751;52.236;5.178;2022-09-13T10:45:42;100968.19;;;21.58;100.00
58975;BME280;44751;52.236;5.178;2022-09-13T10:48:28;100961.53;;;21.20;100.00
58975;BME280;44751;52.236;5.178;2022-09-13T10:51:07;100959.97;;;21.41;100.00
58975;BME280;44751;52.236;5.178;2022-09-13T10:53:43;100963.03;;;21.62;100.00
58975;BME280;44751;52.236;5.178;2022-09-13T10:56:26;100972.28;;;22.35;100.00
58975;BME280;44751;52.236;5.178;2022-09-13T11:13:43;100951.19;;;22.63;95.83
58975;BME280;44751;52.236;5.178;2022-09-13T11:17:01;100952.28;;;22.62;96.16
58975;BME280;44751;52.236;5.178;2022-09-13T11:22:53;100925.38;;;22.19;94.52
58975;BME280;44751;52.236;5.178;2022-09-13T11:37:24;100934.38;;;22.59;88.60
58975;BME280;44751;52.236;5.178;2022-09-13T11:42:58;100931.31;;;22.11;88.74
58975;BME280;44751;52.236;5.178;2022-09-13T11:57:42;100928.50;;;21.83;86.99
58975;BME280;44751;52.236;5.178;2022-09-13T12:00:40;100940.19;;;21.96;85.99
58975;BME280;44751;52.236;5.178;2022-09-13T12:03:30;100926.81;;;21.99;88.16
58975;BME280;44751;52.236;5.178;2022-09-13T19:29:13;100899.66;;;17.45;100.00
58975;BME280;44751;52.236;5.178;2022-09-13T19:31:43;100898.50;;;17.34;100.00
58975;BME280;44751;52.236;5.178;2022-09-13T19:34:13;100892.56;;;17.44;100.00
58975;BME280;44751;52.236;5.178;2022-09-13T19:36:52;100905.59;;;17.60;100.00
58975;BME280;44751;52.236;5.178;2022-09-13T19:39:21;100906.94;;;17.51;100.00
58975;BME280;44751;52.236;5.178;2022-09-13T19:41:57;100905.56;;;17.41;100.00
58975;BME280;44751;52.236;5.178;2022-09-13T19:44:40;100909.72;;;17.44;100.00
58975;BME280;44751;52.236;5.178;2022-09-13T19:47:21;100910.84;;;17.36;100.00
58975;BME280;44751;52.236;5.178;2022-09-13T19:49:49;100910.00;;;17.36;100.00
58975;BME280;44751;52.236;5.178;2022-09-13T19:52:31;100908.94;;;17.37;100.00
58975;BME280;44751;52.236;5.178;2022-09-13T19:54:57;100910.00;;;17.36;100.00
58975;BME280;44751;52.236;5.178;2022-09-13T19:57:24;100911.94;;;17.35;100.00
58975;BME280;44751;52.236;5.178;2022-09-13T19:59:51;100910.94;;;17.23;100.00
58975;BME280;44751;52.236;5.178;2022-09-13T20:02:22;100915.69;;;17.34;100.00
58975;BME280;44751;52.236;5.178;2022-09-13T20:04:49;100920.69;;;17.37;100.00
58975;BME280;44751;52.236;5.178;2022-09-13T20:10:09;100910.28;;;17.27;100.00
58975;BME280;44751;52.236;5.178;2022-09-13T20:12:38;100901.75;;;17.24;100.00
58975;BME280;44751;52.236;5.178;2022-09-13T20:15:08;100908.63;;;17.26;100.00
58975;BME280;44751;52.236;5.178;2022-09-13T20:17:35;100897.59;;;17.14;100.00
58975;BME280;44751;52.236;5.178;2022-09-13T20:20:03;100906.56;;;17.22;100.00
58975;BME280;44751;52.236;5.178;2022-09-13T20:22:43;100894.50;;;17.11;100.00
58975;BME280;44751;52.236;5.178;2022-09-13T20:25:10;100899.13;;;17.03;100.00
58975;BME280;44751;52.236;5.178;2022-09-13T20:27:39;100901.91;;;16.97;100.00
58975;BME280;44751;52.236;5.178;2022-09-13T20:30:06;100893.94;;;16.95;100.00
58975;BME280;44751;52.236;5.178;2022-09-13T20:32:35;100896.03;;;17.00;100.00
58975;BME280;44751;52.236;5.178;2022-09-13T20:35:01;100890.22;;;16.89;100.00
58975;BME280;44751;52.236;5.178;2022-09-13T20:37:49;100890.44;;;16.88;100.00
58975;BME280;44751;52.236;5.178;2022-09-13T20:40:15;100893.09;;;17.01;100.00
58975;BME280;44751;52.236;5.178;2022-09-13T20:42:45;100891.38;;;16.75;100.00
58975;BME280;44751;52.236;5.178;2022-09-13T20:45:13;100898.13;;;16.65;100.00
58975;BME280;44751;52.236;5.178;2022-09-13T20:47:41;100899.81;;;16.67;100.00
58975;BME280;44751;52.236;5.178;2022-09-13T20:50:10;100893.75;;;16.64;100.00
58975;BME280;44751;52.236;5.178;2022-09-13T20:52:43;100897.25;;;16.72;100.00
58975;BME280;44751;52.236;5.178;2022-09-13T20:55:22;100906.50;;;16.64;100.00
58975;BME280;44751;52.236;5.178;2022-09-13T20:57:49;100901.31;;;16.56;100.00
58975;BME280;44751;52.236;5.178;2022-09-13T21:00:21;100904.00;;;16.62;100.00
58975;BME280;44751;52.236;5.178;2022-09-13T21:02:59;100901.78;;;16.46;100.00
58975;BME280;44751;52.236;5.178;2022-09-13T21:05:26;100893.44;;;16.41;100.00
58975;BME280;44751;52.236;5.178;2022-09-13T21:08:04;100891.91;;;16.51;100.00
58975;BME280;44751;52.236;5.178;2022-09-13T21:10:59;100890.25;;;16.50;100.00
58975;BME280;44751;52.236;5.178;2022-09-13T21:13:31;100874.03;;;16.62;100.00
58975;BME280;44751;52.236;5.178;2022-09-13T21:16:13;100880.06;;;16.71;100.00
58975;BME280;44751;52.236;5.178;2022-09-13T21:18:44;100875.91;;;16.69;100.00
58975;BME280;44751;52.236;5.178;2022-09-13T21:21:16;100871.16;;;16.57;100.00
58975;BME280;44751;52.236;5.178;2022-09-13T21:23:53;100867.34;;;16.65;100.00
58975;BME280;44751;52.236;5.178;2022-09-13T21:26:22;100868.59;;;16.62;100.00
58975;BME280;44751;52.236;5.178;2022-09-13T21:28:49;100864.31;;;16.48;100.00
58975;BME280;44751;52.236;5.178;2022-09-13T21:31:20;100875.81;;;16.50;100.00
58975;BME280;44751;52.236;5.178;2022-09-13T21:34:00;100876.28;;;16.40;100.00
58975;BME280;44751;52.236;5.178;2022-09-13T21:36:27;100869.13;;;16.46;100.00
58975;BME280;44751;52.236;5.178;2022-09-13T21:39:09;100867.25;;;16.46;100.00
58975;BME280;44751;52.236;5.178;2022-09-13T21:41:41;100863.41;;;16.54;100.00
58975;BME280;44751;52.236;5.178;2022-09-13T21:44:10;100862.00;;;16.45;100.00
58975;BME280;44751;52.236;5.178;2022-09-13T21:46:39;100858.91;;;16.41;100.00
58975;BME280;44751;52.236;5.178;2022-09-13T21:49:12;100859.13;;;16.39;100.00
58975;BME280;44751;52.236;5.178;2022-09-13T21:51:46;100859.03;;;16.53;100.00
58975;BME280;44751;52.236;5.178;2022-09-13T21:54:19;100858.91;;;16.41;100.00
58975;BME280;44751;52.236;5.178;2022-09-13T21:56:51;100848.66;;;16.36;100.00
58975;BME280;44751;52.236;5.178;2022-09-13T21:59:19;100859.81;;;16.28;100.00
58975;BME280;44751;52.236;5.178;2022-09-13T22:01:48;100865.06;;;16.23;100.00
58975;BME280;44751;52.236;5.178;2022-09-13T22:04:21;100853.38;;;16.16;100.00
58975;BME280;44751;52.236;5.178;2022-09-13T22:07:01;100860.31;;;16.11;100.00
58975;BME280;44751;52.236;5.178;2022-09-13T22:09:33;100861.41;;;15.97;100.00
58975;BME280;44751;52.236;5.178;2022-09-13T22:12:01;100862.28;;;15.84;100.00
58975;BME280;44751;52.236;5.178;2022-09-13T22:14:27;100865.63;;;15.79;100.00
58975;BME280;44751;52.236;5.178;2022-09-13T22:16:54;100864.41;;;15.68;100.00
58975;BME280;44751;52.236;5.178;2022-09-13T22:19:27;100860.22;;;15.59;100.00
58975;BME280;44751;52.236;5.178;2022-09-13T22:22:24;100857.09;;;15.55;100.00
58975;BME280;44751;52.236;5.178;2022-09-13T22:24:50;100857.56;;;15.39;100.00
58975;BME280;44751;52.236;5.178;2022-09-13T22:27:17;100855.25;;;15.29;100.00
58975;BME280;44751;52.236;5.178;2022-09-13T22:29:43;100853.19;;;15.17;100.00
58975;BME280;44751;52.236;5.178;2022-09-13T22:32:11;100860.91;;;15.20;100.00
58975;BME280;44751;52.236;5.178;2022-09-13T22:34:38;100856.53;;;15.19;100.00
58975;BME280;44751;52.236;5.178;2022-09-13T22:37:13;100861.34;;;15.10;100.00
58975;BME280;44751;52.236;5.178;2022-09-13T22:39:43;100850.06;;;15.14;100.00
58975;BME280;44751;52.236;5.178;2022-09-13T22:42:09;100854.25;;;15.09;100.00
58975;BME280;44751;52.236;5.178;2022-09-13T22:44:38;100852.34;;;15.10;100.00
58975;BME280;44751;52.236;5.178;2022-09-13T22:47:05;100851.94;;;15.06;100.00
58975;BME280;44751;52.236;5.178;2022-09-13T22:50:05;100846.72;;;15.05;100.00
58975;BME280;44751;52.236;5.178;2022-09-13T22:52:52;100846.72;;;15.05;100.00
58975;BME280;44751;52.236;5.178;2022-09-13T22:55:20;100833.53;;;15.08;100.00
58975;BME280;44751;52.236;5.178;2022-09-13T22:57:46;100827.91;;;15.03;100.00
58975;BME280;44751;52.236;5.178;2022-09-13T23:00:13;100827.69;;;14.98;100.00
58975;BME280;44751;52.236;5.178;2022-09-13T23:02:40;100842.09;;;14.92;100.00
58975;BME280;44751;52.236;5.178;2022-09-13T23:05:07;100854.84;;;14.78;100.00
58975;BME280;44751;52.236;5.178;2022-09-13T23:07:44;100839.59;;;14.77;100.00
58975;BME280;44751;52.236;5.178;2022-09-13T23:10:10;100842.31;;;14.83;100.00
58975;BME280;44751;52.236;5.178;2022-09-13T23:12:37;100839.38;;;14.78;100.00
58975;BME280;44751;52.236;5.178;2022-09-13T23:15:06;100834.53;;;14.74;100.00
58975;BME280;44751;52.236;5.178;2022-09-13T23:17:35;100826.81;;;14.70;100.00
58975;BME280;44751;52.236;5.178;2022-09-13T23:20:02;100838.13;;;14.81;100.00
58975;BME280;44751;52.236;5.178;2022-09-13T23:22:28;100837.28;;;14.80;100.00
58975;BME280;44751;52.236;5.178;2022-09-13T23:25:01;100843.16;;;14.77;100.00
58975;BME280;44751;52.236;5.178;2022-09-13T23:27:30;100837.50;;;14.79;100.00
58975;BME280;44751;52.236;5.178;2022-09-13T23:29:56;100832.06;;;14.79;100.00
58975;BME280;44751;52.236;5.178;2022-09-13T23:32:23;100827.25;;;14.81;100.00
58975;BME280;44751;52.236;5.178;2022-09-13T23:34:49;100836.88;;;14.83;100.00
58975;BME280;44751;52.236;5.178;2022-09-13T23:37:16;100825.81;;;14.92;100.00
58975;BME280;44751;52.236;5.178;2022-09-13T23:39:48;100822.69;;;14.81;100.00